• Join FlightAware (Why Join?)
  • Login
  • US Flag 
06:34AM EDT


 

Airport Tracker/Info


-or-


 

Live Flight TrackerFlight Track Log ✈ EGF3994 ✈ 26-Apr-2013 ✈ KORD - KDAY

Flight Track Log - Related Links

Times and Time Zones

All times are in EDT time to prevent confusion due to time zone crossing. See the EGF3994 flight status page for this flight to view local times or setup timezone preferences in your user account.

Time Position Orientation Groundspeed Altitude Reporting Facility
EDT Latitude Longitude Course Direction KTS MPH feet Rate Location/Type
06:47PM 41.9167 -87.9167 90° East 202 232 3,200  Level Chicago TRACON
06:48PM 41.9167 -87.8333 90° East 252 290 5,400 2,280 Climbing Chicago TRACON
06:49PM 41.9603 -87.4698 98° East  Level FlightAware Approximate
06:49PM 41.9167 -87.7333 90° East 272 313 7,900  Level Chicago TRACON
06:50PM 41.9472 -87.3273 95° East  Level FlightAware Approximate
06:51PM 41.9370 -87.1845 95° East  Level FlightAware Approximate
06:51PM 41.9167 -87.6000 90° East 302 348 10,300  Level Chicago TRACON
06:52PM 41.9333 -87.0412 90° East  Level FlightAware Approximate
06:53PM 41.9333 -86.9160 90° East  Level FlightAware Approximate
06:53PM 41.9322 -87.3750 85° East 315 362 15,100  Level Chicago Center
06:54PM 41.9372 -87.2564 87° East 317 365 16,000 900 Climbing Chicago Center
06:55PM 41.9433 -87.0908 87° East 364 419 17,000 900 Climbing Chicago Center
06:56PM 41.9475 -86.9444 88° East 384 442 17,900 1,020 Climbing Chicago Center
06:57PM 41.9492 -86.7961 89° East 395 455 19,200 1,140 Climbing Chicago Center
06:58PM 41.9500 -86.6367 90° East 410 472 20,300 1,020 Climbing Chicago Center
06:59PM 41.9511 -86.4781 89° East 420 483 21,400 1,020 Climbing Chicago Center
07:00PM 41.9483 -86.3153 91° East 436 502 22,500 720 Climbing Chicago Center
07:01PM 41.9075 -86.1567 109° East 447 514 23,000 240 Climbing Chicago Center
07:02PM 41.8678 -85.9925 108° East 462 532 23,000  Level Chicago Center
07:03PM 41.8169 -85.7903 109° East 476 548 23,000  Level Chicago Center
07:04PM 41.7733 -85.6211 109° East 479 551 23,000 -120 Level Chicago Center
07:05PM 41.6692 -85.5236 145° Southeast 471 542 22,800 -480 Descending Chicago Center
07:06PM 41.5539 -85.4656 159° South 468 539 22,100 -960 Descending Chicago Center
07:07PM 41.4119 -85.3967 160° South 461 531 20,900 -1,020 Descending Chicago Center
07:08PM 41.2975 -85.3414 160° South 447 514 20,000 -960 Descending Chicago Center
07:09PM 41.1897 -85.2883 160° South 425 489 19,000 -960 Descending Chicago Center
07:10PM 41.0828 -85.2361 160° South 413 475 18,100 -720 Descending Chicago Center
07:11PM 40.9778 -85.1825 159° South 407 468 17,600 -840 Descending Chicago Center
07:12PM 40.8919 -85.0417 129° Southeast 410 472 16,400 -1,140 Descending Chicago Center
07:13PM 40.8225 -84.9244 128° Southeast 408 470 15,300 -720 Descending Chicago Center
07:14PM 40.7539 -84.8097 128° Southeast 403 464 15,000 -180 Descending Chicago Center
07:15PM 40.6833 -84.6936 129° Southeast 405 466 15,000  Level Chicago Center
07:16PM 40.6128 -84.5756 128° Southeast 410 472 15,000 -360 Level Chicago Center
07:17PM 40.5619 -84.4931 129° Southeast 410 472 14,500 -1,440 Descending Indianapolis Center
07:18PM 40.5194 -84.4214 128° Southeast 405 466 13,300 -1,740 Descending Indianapolis Center
07:18PM 40.4933 -84.3778 128° Southeast 394 453 12,500 -1,800 Descending Indianapolis Center
07:19PM 40.4489 -84.3072 130° Southeast 375 432 11,300 -1,680 Descending Indianapolis Center
07:19PM 40.4117 -84.2742 146° Southeast 345 397 10,800 -1,020 Descending Indianapolis Center
07:20PM 40.3683 -84.2664 172° South 298 343 10,300 -1,200 Descending Indianapolis Center
07:20PM 40.3294 -84.2619 175° South 296 341 9,600 -1,560 Descending Indianapolis Center
07:21PM 40.2978 -84.2569 173° South 268 308 8,900 -1,680 Descending Indianapolis Center
07:21PM 40.2531 -84.2517 175° South 279 321 7,900 -1,500 Descending Indianapolis Center
07:22PM 40.2231 -84.2469 173° South 270 311 7,400 -1,020 Descending Indianapolis Center
07:22PM 40.1800 -84.2389 172° South 268 308 6,900 -840 Descending Indianapolis Center
07:23PM 40.1525 -84.2128 144° Southeast 227 261 6,500 -780 Descending Indianapolis Center
07:23PM 40.1314 -84.1931 144° Southeast 226 260 6,100 -540 Descending Indianapolis Center
07:24PM 40.1019 -84.1897 175° South 200 230 6,000 -240 Descending Indianapolis Center